Time;durP1;ratioP1;P1;durP2;ratioP2;P2;SDS_P1;SDS_P2;PMS_P1;PMS_P2;Temp;Humidity;BMP_temperature;BMP_pressure;BME280_temperature;BME280_humidity;BME280_pressure;Samples;Min_cycle;Max_cycle;Signal;HPM_P1;HPM_P2
2022/01/29 00:00:41;;;;;;;8.93;3.20;;;0.80;99.90;;;;;;8401599;28;20176;-65
2022/01/29 00:04:42;;;;;;;14.87;3.60;;;0.80;99.90;;;;;;8401234;28;20185;-63
2022/01/29 00:08:43;;;;;;;14.13;2.93;;;0.80;99.90;;;;;;8390979;28;20184;-64
2022/01/29 00:12:44;;;;;;;10.57;3.00;;;0.80;99.90;;;;;;8376953;28;20286;-64
2022/01/29 00:16:45;;;;;;;14.20;3.07;;;0.80;99.90;;;;;;8377606;28;20559;-64
2022/01/29 00:20:45;;;;;;;9.10;2.40;;;0.80;99.90;;;;;;8404073;28;20196;-64
2022/01/29 00:24:46;;;;;;;14.33;3.10;;;0.80;99.90;;;;;;8394457;28;20170;-64
2022/01/29 00:28:51;;;;;;;15.33;3.73;;;0.80;99.90;;;;;;8393760;28;20181;-64
2022/01/29 00:32:51;;;;;;;14.03;3.10;;;0.90;99.90;;;;;;8392695;28;20200;-63
2022/01/29 00:36:52;;;;;;;12.07;3.10;;;0.90;99.90;;;;;;8389608;28;20189;-66
2022/01/29 00:40:53;;;;;;;12.10;2.30;;;0.90;99.90;;;;;;8365881;28;20506;-64
2022/01/29 00:44:54;;;;;;;8.47;2.50;;;0.90;99.90;;;;;;8422564;28;20185;-64
2022/01/29 00:48:55;;;;;;;7.37;2.77;;;0.90;99.90;;;;;;8425170;28;20279;-64
2022/01/29 00:52:55;;;;;;;9.10;2.93;;;1.00;99.90;;;;;;8389793;28;20229;-65
2022/01/29 00:56:56;;;;;;;14.13;2.90;;;1.00;99.90;;;;;;8391341;28;20178;-64
2022/01/29 01:00:57;;;;;;;10.63;2.63;;;1.00;99.90;;;;;;8403733;28;20176;-64
2022/01/29 01:04:58;;;;;;;11.60;2.77;;;1.00;99.90;;;;;;8405567;28;20230;-63
2022/01/29 01:08:59;;;;;;;13.03;3.40;;;1.00;99.90;;;;;;8409826;28;20185;-64
2022/01/29 01:12:59;;;;;;;11.70;3.50;;;0.90;99.90;;;;;;8402063;28;20497;-64
2022/01/29 01:17:00;;;;;;;10.97;2.80;;;0.80;99.90;;;;;;8397489;28;20274;-66
2022/01/29 01:21:01;;;;;;;12.97;2.80;;;0.80;99.90;;;;;;8396456;28;20214;-65
2022/01/29 01:25:02;;;;;;;11.73;3.17;;;0.80;99.90;;;;;;8391375;28;20207;-64
2022/01/29 01:29:03;;;;;;;11.60;2.57;;;0.90;99.90;;;;;;8394544;28;20184;-64
2022/01/29 01:33:05;;;;;;;9.63;2.67;;;0.80;99.90;;;;;;8386206;28;20220;-64
2022/01/29 01:37:10;;;;;;;14.53;3.53;;;0.80;99.90;;;;;;8404840;28;20510;-65
2022/01/29 01:41:14;;;;;;;15.37;2.70;;;0.80;99.90;;;;;;8392573;28;20191;-66
2022/01/29 01:45:15;;;;;;;9.10;3.13;;;0.80;99.90;;;;;;8420740;28;20177;-65
2022/01/29 01:49:16;;;;;;;10.97;2.93;;;0.90;99.90;;;;;;8388247;28;20188;-64
2022/01/29 01:53:17;;;;;;;12.50;2.87;;;0.90;99.90;;;;;;8377437;28;20205;-64
2022/01/29 01:57:18;;;;;;;8.43;2.33;;;0.80;99.90;;;;;;8390398;28;20173;-64
2022/01/29 02:01:19;;;;;;;12.43;2.60;;;0.90;99.90;;;;;;8411980;28;20280;-65
2022/01/29 02:05:20;;;;;;;10.23;3.33;;;0.80;99.90;;;;;;8401084;28;20251;-64
2022/01/29 02:09:23;;;;;;;12.50;3.63;;;0.90;99.90;;;;;;8388751;28;20197;-65
2022/01/29 02:13:24;;;;;;;12.40;3.03;;;0.90;99.90;;;;;;8385064;28;20213;-64
2022/01/29 02:17:25;;;;;;;14.97;2.83;;;0.80;99.90;;;;;;8388247;28;20216;-65
2022/01/29 02:21:27;;;;;;;12.27;2.70;;;0.80;99.90;;;;;;8403708;28;20181;-64
2022/01/29 02:25:33;;;;;;;13.20;3.50;;;0.80;99.90;;;;;;8387742;28;20185;-65
2022/01/29 02:29:34;;;;;;;9.93;3.27;;;0.80;99.90;;;;;;8392011;28;20189;-64
2022/01/29 02:33:38;;;;;;;11.97;3.07;;;0.80;99.90;;;;;;8402354;28;20201;-64
2022/01/29 02:37:40;;;;;;;11.60;2.83;;;0.80;99.90;;;;;;8393365;28;20184;-65
2022/01/29 02:41:44;;;;;;;15.47;3.57;;;0.80;99.90;;;;;;8378462;28;20180;-65
2022/01/29 02:45:46;;;;;;;9.43;2.67;;;0.90;99.90;;;;;;8394798;28;20188;-64
2022/01/29 02:49:47;;;;;;;10.00;2.80;;;0.90;99.90;;;;;;8386470;28;20185;-65
2022/01/29 02:53:48;;;;;;;10.47;2.63;;;1.00;99.90;;;;;;8385694;28;20207;-64
2022/01/29 02:57:49;;;;;;;9.83;2.87;;;1.00;99.90;;;;;;8385828;28;20190;-64
2022/01/29 03:01:50;;;;;;;11.17;2.50;;;1.00;99.90;;;;;;8410937;28;20254;-64
2022/01/29 03:05:51;;;;;;;10.33;2.67;;;1.10;99.90;;;;;;8419062;28;20180;-64
2022/01/29 03:09:52;;;;;;;8.83;2.93;;;1.20;99.90;;;;;;8401145;28;20193;-64
2022/01/29 03:13:53;;;;;;;10.13;3.27;;;1.20;99.90;;;;;;8382427;28;20299;-65
2022/01/29 03:17:54;;;;;;;11.33;3.23;;;1.20;99.90;;;;;;8385356;28;20201;-65
2022/01/29 03:21:55;;;;;;;10.60;2.73;;;1.30;99.90;;;;;;8394302;28;20191;-64
2022/01/29 03:25:55;;;;;;;12.70;3.17;;;1.30;99.90;;;;;;8391514;28;20181;-64
2022/01/29 03:29:59;;;;;;;8.57;3.20;;;1.40;99.90;;;;;;8387685;28;20192;-62
2022/01/29 03:34:00;;;;;;;8.70;3.20;;;1.40;99.90;;;;;;8364473;28;20271;-63
2022/01/29 03:38:01;;;;;;;10.67;2.90;;;1.40;99.90;;;;;;8386798;28;20228;-63
2022/01/29 03:42:06;;;;;;;13.57;4.07;;;1.40;99.90;;;;;;8397794;28;20214;-64
2022/01/29 03:46:06;;;;;;;15.37;3.80;;;1.40;99.90;;;;;;8380665;28;20249;-64
2022/01/29 03:50:08;;;;;;;13.03;2.97;;;1.40;99.90;;;;;;8379365;28;20196;-63
2022/01/29 03:54:08;;;;;;;15.03;3.20;;;1.50;99.90;;;;;;8386901;28;20302;-62
2022/01/29 03:58:09;;;;;;;7.70;2.67;;;1.50;99.90;;;;;;8383245;28;20193;-62
2022/01/29 04:02:10;;;;;;;6.30;2.70;;;1.50;99.90;;;;;;8411313;28;20194;-63
2022/01/29 04:06:11;;;;;;;13.10;3.87;;;1.50;99.90;;;;;;8390225;28;20185;-64
2022/01/29 04:10:12;;;;;;;9.07;3.20;;;1.50;99.90;;;;;;8384145;28;20197;-64
2022/01/29 04:14:18;;;;;;;13.33;3.10;;;1.60;99.90;;;;;;8391103;28;20236;-64
2022/01/29 04:18:18;;;;;;;11.03;3.53;;;1.60;99.90;;;;;;8392180;28;20198;-64
2022/01/29 04:22:19;;;;;;;12.53;4.80;;;1.70;99.90;;;;;;8395045;28;20188;-63
2022/01/29 04:26:20;;;;;;;16.90;4.67;;;1.70;99.90;;;;;;8395940;28;20213;-66
2022/01/29 04:30:32;;;;;;;7.90;3.50;;;1.80;99.90;;;;;;8408127;28;20196;-64
2022/01/29 04:34:33;;;;;;;15.93;5.77;;;1.90;99.90;;;;;;8391900;28;20513;-64
2022/01/29 04:38:34;;;;;;;13.53;3.50;;;1.90;99.90;;;;;;8391551;28;20243;-67
2022/01/29 04:42:34;;;;;;;14.60;3.67;;;2.00;21.10;;;;;;8388073;28;20350;-63
2022/01/29 04:46:35;;;;;;;16.33;3.97;;;2.00;1.00;;;;;;8387402;28;20223;-63
2022/01/29 04:50:36;;;;;;;12.40;3.27;;;2.00;1.00;;;;;;8401717;28;20185;-62
2022/01/29 04:54:37;;;;;;;8.77;3.03;;;2.10;1.00;;;;;;8394040;28;20479;-62
2022/01/29 04:58:38;;;;;;;11.97;3.20;;;2.10;1.00;;;;;;8389914;28;20192;-63
2022/01/29 05:02:39;;;;;;;6.67;2.87;;;2.10;1.00;;;;;;8390452;28;20185;-65
2022/01/29 05:06:39;;;;;;;8.97;3.00;;;2.10;1.00;;;;;;8395922;28;20216;-64
2022/01/29 05:10:40;;;;;;;13.07;3.30;;;2.20;99.90;;;;;;8383351;28;20200;-65
2022/01/29 05:14:53;;;;;;;9.73;2.63;;;2.20;7.80;;;;;;8393637;28;20284;-64
2022/01/29 05:27:32;;;;;;;13.17;3.13;;;2.40;99.90;;;;;;8382611;28;20201;-64
2022/01/29 05:31:34;;;;;;;12.67;5.20;;;2.40;99.90;;;;;;8386538;28;20185;-64
2022/01/29 05:35:35;;;;;;;11.27;4.53;;;2.40;99.90;;;;;;8389889;28;20220;-72
2022/01/29 05:39:37;;;;;;;11.97;3.40;;;2.50;1.00;;;;;;8402225;28;20205;-64
2022/01/29 05:43:37;;;;;;;11.80;2.87;;;2.50;99.90;;;;;;8399507;28;20180;-64
2022/01/29 05:47:38;;;;;;;10.47;2.93;;;2.50;99.90;;;;;;8394240;28;20181;-64
2022/01/29 05:51:39;;;;;;;9.37;3.43;;;2.50;65.00;;;;;;8387547;28;20222;-65
2022/01/29 05:55:40;;;;;;;11.73;3.63;;;2.60;99.90;;;;;;8396877;28;20316;-63
2022/01/29 05:59:40;;;;;;;14.53;3.40;;;2.60;1.00;;;;;;8392495;28;20261;-62
2022/01/29 06:03:41;;;;;;;7.40;2.90;;;2.70;99.90;;;;;;8400734;28;20188;-62
2022/01/29 06:07:42;;;;;;;8.77;2.97;;;2.70;99.90;;;;;;8409256;28;20216;-63
2022/01/29 06:11:43;;;;;;;13.47;3.13;;;2.70;1.00;;;;;;8395018;28;20260;-63
2022/01/29 06:15:46;;;;;;;17.07;3.27;;;2.70;99.90;;;;;;8385644;28;20216;-63
2022/01/29 06:19:48;;;;;;;10.60;3.30;;;2.70;99.90;;;;;;8386331;28;20177;-64
2022/01/29 06:23:49;;;;;;;9.80;4.43;;;2.70;99.90;;;;;;8387819;28;20193;-66
2022/01/29 06:27:50;;;;;;;11.43;3.00;;;2.60;1.00;;;;;;8388047;28;20185;-65
2022/01/29 06:31:51;;;;;;;13.07;4.10;;;2.60;23.80;;;;;;8394237;28;20185;-65
2022/01/29 06:35:52;;;;;;;11.03;3.40;;;2.50;99.90;;;;;;8389163;28;20304;-65
2022/01/29 06:39:53;;;;;;;7.87;3.57;;;2.40;99.90;;;;;;8393047;28;20178;-64
2022/01/29 06:43:54;;;;;;;9.80;3.27;;;2.30;99.90;;;;;;8409577;28;20187;-65
2022/01/29 06:47:55;;;;;;;10.03;3.00;;;2.20;99.90;;;;;;8402848;28;20184;-65
2022/01/29 06:51:56;;;;;;;14.53;4.00;;;2.20;99.90;;;;;;8372767;28;20189;-67
2022/01/29 06:55:57;;;;;;;9.33;3.33;;;2.20;99.90;;;;;;8394032;28;20282;-67
2022/01/29 06:59:57;;;;;;;10.10;3.37;;;2.30;99.90;;;;;;8392853;28;20177;-67
2022/01/29 07:03:58;;;;;;;11.63;3.63;;;2.30;99.90;;;;;;8384845;28;20200;-67
2022/01/29 07:07:59;;;;;;;7.67;3.80;;;2.30;99.90;;;;;;8386022;28;20183;-67
2022/01/29 07:12:08;;;;;;;11.90;3.37;;;2.30;99.90;;;;;;8381302;28;20220;-67
2022/01/29 07:16:09;;;;;;;12.07;4.37;;;2.30;99.90;;;;;;8384737;28;20211;-67
2022/01/29 07:20:10;;;;;;;12.87;5.03;;;2.40;99.90;;;;;;8380676;28;20217;-67
2022/01/29 07:24:11;;;;;;;14.53;5.90;;;2.40;99.90;;;;;;8388759;28;20211;-67
2022/01/29 07:28:12;;;;;;;6.30;3.67;;;2.40;99.90;;;;;;8376560;28;20192;-67
2022/01/29 07:32:14;;;;;;;15.10;4.97;;;2.50;99.90;;;;;;8387967;28;20188;-71
2022/01/29 07:36:15;;;;;;;11.50;3.83;;;2.50;99.90;;;;;;8380302;28;20291;-67
2022/01/29 07:40:16;;;;;;;11.83;4.17;;;2.50;99.90;;;;;;8382085;28;20281;-67
2022/01/29 07:44:17;;;;;;;8.97;3.80;;;2.60;99.90;;;;;;8390192;28;20181;-67
2022/01/29 07:48:18;;;;;;;11.60;3.90;;;2.70;99.90;;;;;;8395637;28;20186;-68
2022/01/29 07:52:19;;;;;;;11.97;4.30;;;2.70;99.90;;;;;;8398541;28;20212;-66
2022/01/29 07:56:20;;;;;;;6.90;3.33;;;2.80;99.90;;;;;;8380799;28;20318;-68
2022/01/29 08:00:21;;;;;;;8.23;4.03;;;2.80;99.90;;;;;;8397296;28;20183;-68
2022/01/29 08:04:24;;;;;;;11.37;3.40;;;2.90;99.90;;;;;;8416982;28;20212;-67
2022/01/29 08:08:25;;;;;;;8.37;3.57;;;2.90;99.90;;;;;;8418503;28;20180;-65
2022/01/29 08:12:26;;;;;;;8.67;3.00;;;3.00;99.90;;;;;;8395708;28;20209;-67
2022/01/29 08:16:26;;;;;;;8.67;3.53;;;3.10;99.90;;;;;;8390965;28;20205;-67
2022/01/29 08:20:27;;;;;;;6.80;3.37;;;3.10;99.90;;;;;;8382492;28;20195;-69
2022/01/29 08:24:28;;;;;;;8.77;3.63;;;3.20;99.90;;;;;;8383829;28;20182;-67
2022/01/29 08:28:29;;;;;;;14.30;3.93;;;3.20;99.90;;;;;;8383562;28;20190;-68
2022/01/29 08:32:30;;;;;;;9.87;4.70;;;3.20;99.90;;;;;;8412251;28;20198;-67
2022/01/29 08:36:30;;;;;;;9.53;4.17;;;3.30;99.90;;;;;;8419273;28;20211;-64
2022/01/29 08:40:31;;;;;;;6.67;3.60;;;3.30;99.90;;;;;;8402578;28;20189;-65
2022/01/29 08:44:32;;;;;;;16.57;4.27;;;3.30;99.90;;;;;;8399670;28;20237;-65
2022/01/29 08:48:34;;;;;;;9.47;4.10;;;3.30;99.90;;;;;;8401759;28;20170;-66
2022/01/29 08:52:35;;;;;;;9.67;3.63;;;3.40;99.90;;;;;;8386392;28;20180;-67
2022/01/29 08:56:36;;;;;;;7.37;4.10;;;3.40;99.90;;;;;;8389957;28;20180;-67
2022/01/29 09:00:44;;;;;;;8.20;3.97;;;3.40;99.90;;;;;;8409016;28;20172;-67
2022/01/29 09:05:05;;;;;;;12.37;4.83;;;3.40;99.90;;;;;;8423404;28;20200;-66
2022/01/29 09:09:06;;;;;;;12.50;4.90;;;3.40;99.90;;;;;;8423430;28;20185;-66
2022/01/29 09:13:07;;;;;;;7.87;4.30;;;3.50;99.90;;;;;;8388374;28;20234;-70
2022/01/29 09:17:08;;;;;;;8.10;4.57;;;3.40;99.90;;;;;;8378955;28;20212;-65
2022/01/29 09:21:08;;;;;;;13.13;4.70;;;3.40;99.90;;;;;;8402888;28;20184;-65
2022/01/29 09:25:09;;;;;;;8.67;4.60;;;3.40;99.90;;;;;;8409707;28;20188;-66
2022/01/29 09:29:10;;;;;;;12.70;4.37;;;3.40;99.90;;;;;;8379962;28;20177;-67
2022/01/29 09:33:12;;;;;;;11.67;4.77;;;3.40;99.90;;;;;;8379364;28;20254;-67
2022/01/29 09:37:13;;;;;;;10.77;5.57;;;3.40;99.90;;;;;;8402792;28;20186;-67
2022/01/29 09:41:15;;;;;;;13.73;5.63;;;3.40;99.90;;;;;;8392560;28;20185;-67
2022/01/29 09:45:19;;;;;;;10.63;5.47;;;3.40;99.90;;;;;;8393195;28;20227;-66
2022/01/29 09:49:20;;;;;;;10.70;6.07;;;3.50;99.90;;;;;;8394122;28;20200;-71
2022/01/29 09:53:21;;;;;;;8.53;5.30;;;3.50;99.90;;;;;;8391416;28;20237;-68
2022/01/29 09:57:22;;;;;;;11.37;5.17;;;3.70;99.90;;;;;;8390954;28;20185;-67
2022/01/29 10:01:23;;;;;;;12.07;5.20;;;3.60;99.90;;;;;;8399437;28;20199;-67
2022/01/29 10:05:35;;;;;;;5.80;4.40;;;3.60;99.90;;;;;;8388242;28;20189;-67
2022/01/29 10:09:36;;;;;;;11.20;5.33;;;3.70;99.90;;;;;;8387194;28;20185;-66
2022/01/29 10:13:38;;;;;;;8.07;5.43;;;3.70;99.90;;;;;;8379937;28;20212;-64
2022/01/29 10:17:56;;;;;;;11.80;5.33;;;3.70;99.90;;;;;;8394687;28;20196;-69
2022/01/29 10:21:57;;;;;;;7.47;5.10;;;3.70;99.90;;;;;;8394392;28;20228;-65
2022/01/29 10:25:58;;;;;;;9.67;6.07;;;3.70;99.90;;;;;;8391242;28;20188;-67
2022/01/29 10:30:03;;;;;;;13.20;6.17;;;3.80;99.90;;;;;;8390896;28;20181;-67
2022/01/29 10:34:26;;;;;;;9.33;5.67;;;3.90;99.90;;;;;;8394231;28;20204;-69
2022/01/29 10:38:41;;;;;;;9.87;5.23;;;3.90;99.90;;;;;;8408089;28;20183;-67
2022/01/29 10:42:42;;;;;;;7.37;5.23;;;3.90;99.90;;;;;;8389842;28;20173;-68
2022/01/29 10:46:54;;;;;;;8.03;5.13;;;4.00;99.90;;;;;;8388452;28;20182;-66
2022/01/29 10:51:13;;;;;;;8.40;5.23;;;4.20;99.90;;;;;;8375109;28;20617;-66
2022/01/29 10:55:15;;;;;;;8.33;5.37;;;4.30;99.90;;;;;;8394277;28;20197;-67
2022/01/29 10:59:16;;;;;;;7.07;4.60;;;4.40;99.90;;;;;;8385450;28;20187;-70
2022/01/29 11:03:16;;;;;;;7.20;5.13;;;4.50;99.90;;;;;;8386441;28;20177;-67
2022/01/29 11:07:24;;;;;;;8.53;5.03;;;4.50;99.90;;;;;;8386224;28;20235;-67
2022/01/29 11:11:25;;;;;;;5.77;4.50;;;4.50;99.90;;;;;;8374235;28;20236;-66
2022/01/29 11:15:31;;;;;;;7.03;4.90;;;4.60;99.90;;;;;;8393927;28;20278;-66
2022/01/29 11:19:35;;;;;;;6.53;5.00;;;4.70;99.90;;;;;;8386278;28;20268;-67
2022/01/29 11:23:36;;;;;;;8.90;5.00;;;4.90;99.90;;;;;;8392105;28;20185;-66
2022/01/29 11:27:38;;;;;;;8.30;4.63;;;4.90;99.90;;;;;;8391854;28;20279;-66
2022/01/29 11:31:38;;;;;;;6.07;4.27;;;4.90;99.90;;;;;;8387077;28;20224;-66
2022/01/29 11:35:56;;;;;;;8.20;4.70;;;4.80;99.90;;;;;;8383504;28;20212;-67
2022/01/29 11:40:26;;;;;;;6.90;4.97;;;4.60;99.90;;;;;;8382322;28;20217;-66
2022/01/29 11:44:28;;;;;;;6.27;4.83;;;4.50;99.90;;;;;;8374806;28;20328;-67
2022/01/29 11:48:34;;;;;;;5.80;4.67;;;4.40;99.90;;;;;;8385170;28;20188;-67
2022/01/29 11:52:56;;;;;;;6.03;5.37;;;4.40;99.90;;;;;;8391510;28;20177;-68
2022/01/29 11:57:09;;;;;;;8.93;4.67;;;4.40;99.90;;;;;;8383101;28;20178;-66
2022/01/29 12:01:30;;;;;;;7.17;5.50;;;4.40;99.90;;;;;;8404336;28;20173;-66
2022/01/29 12:06:18;;;;;;;8.37;4.50;;;4.40;99.90;;;;;;8417709;28;20263;-66
2022/01/29 12:10:35;;;;;;;7.63;5.53;;;4.40;99.90;;;;;;8405118;28;20227;-66
2022/01/29 12:14:35;;;;;;;7.67;5.73;;;4.40;99.90;;;;;;8403285;28;20299;-66
2022/01/29 12:18:36;;;;;;;6.07;4.10;;;4.40;99.90;;;;;;8419619;28;20199;-67
2022/01/29 12:22:39;;;;;;;8.10;3.70;;;4.40;99.90;;;;;;8398442;28;20260;-67
2022/01/29 12:26:40;;;;;;;6.27;4.30;;;4.40;99.90;;;;;;8388296;28;20186;-67
2022/01/29 12:30:41;;;;;;;5.03;3.83;;;4.30;99.90;;;;;;8385599;28;20268;-66
2022/01/29 12:34:53;;;;;;;5.47;3.93;;;4.30;99.90;;;;;;8386346;28;20197;-68
2022/01/29 12:39:04;;;;;;;4.53;3.60;;;4.20;99.90;;;;;;8406160;28;20205;-67
2022/01/29 12:43:31;;;;;;;4.40;3.10;;;4.20;99.90;;;;;;8394897;28;20248;-66
2022/01/29 12:47:36;;;;;;;6.07;3.67;;;4.20;99.90;;;;;;8405069;28;20211;-66
2022/01/29 12:51:50;;;;;;;3.80;3.00;;;4.30;99.90;;;;;;8385935;28;20264;-67
2022/01/29 12:56:09;;;;;;;3.90;3.23;;;4.30;99.90;;;;;;8387137;28;20234;-71
2022/01/29 13:00:13;;;;;;;5.07;3.27;;;4.20;99.90;;;;;;8389340;28;20225;-66
2022/01/29 13:04:17;;;;;;;4.00;3.20;;;4.20;99.90;;;;;;8380433;28;20239;-68
2022/01/29 13:08:26;;;;;;;3.70;2.70;;;4.20;99.90;;;;;;8398528;28;20235;-66
2022/01/29 13:12:27;;;;;;;4.73;3.10;;;4.30;99.90;;;;;;8389982;28;20205;-67
2022/01/29 13:16:31;;;;;;;3.50;2.77;;;4.40;99.90;;;;;;8401878;28;20258;-66
2022/01/29 13:20:32;;;;;;;3.57;2.63;;;4.40;99.90;;;;;;8394928;28;20178;-66
2022/01/29 13:24:39;;;;;;;5.07;3.03;;;4.30;99.90;;;;;;8384866;28;20204;-67
2022/01/29 13:28:46;;;;;;;5.73;3.37;;;4.30;99.90;;;;;;8389900;28;20177;-67
2022/01/29 13:32:53;;;;;;;3.63;3.10;;;4.30;99.90;;;;;;8393805;28;20195;-69
2022/01/29 13:36:54;;;;;;;4.63;3.47;;;4.30;99.90;;;;;;8388101;28;20185;-67
2022/01/29 13:40:59;;;;;;;4.97;4.10;;;4.40;99.90;;;;;;8386028;28;20521;-69
2022/01/29 13:45:15;;;;;;;5.37;4.37;;;4.40;99.90;;;;;;8389508;28;20200;-66
2022/01/29 13:49:33;;;;;;;5.80;4.10;;;4.50;99.90;;;;;;8381515;28;20192;-65
2022/01/29 13:53:43;;;;;;;5.03;4.17;;;4.60;99.90;;;;;;8394023;28;20348;-67
2022/01/29 13:58:04;;;;;;;4.97;3.30;;;4.60;99.90;;;;;;8391850;28;20188;-67
2022/01/29 14:02:07;;;;;;;5.27;3.87;;;4.60;99.90;;;;;;8397633;28;20176;-67
2022/01/29 14:06:30;;;;;;;6.33;4.07;;;4.70;99.90;;;;;;8386809;28;20181;-67
2022/01/29 14:10:37;;;;;;;6.67;4.40;;;4.70;99.90;;;;;;8382940;28;20205;-67
2022/01/29 14:15:11;;;;;;;5.83;4.27;;;4.70;99.90;;;;;;8415205;28;20215;-67
2022/01/29 14:19:17;;;;;;;6.60;4.43;;;4.80;99.90;;;;;;8421395;28;20183;-67
2022/01/29 14:23:18;;;;;;;5.77;4.17;;;4.80;99.90;;;;;;8380128;28;20194;-67
2022/01/29 14:27:19;;;;;;;7.57;4.43;;;4.80;99.90;;;;;;8381864;28;20277;-67
2022/01/29 14:31:20;;;;;;;7.13;4.97;;;4.80;99.90;;;;;;8403125;28;20189;-67
2022/01/29 14:35:21;;;;;;;8.30;4.97;;;4.80;99.90;;;;;;8420082;28;20211;-70
2022/01/29 14:39:25;;;;;;;6.57;5.20;;;4.80;99.90;;;;;;8362337;28;20186;-68
2022/01/29 14:43:25;;;;;;;5.77;4.87;;;4.80;99.90;;;;;;8392620;28;20184;-67
2022/01/29 14:47:26;;;;;;;5.80;4.50;;;4.90;99.90;;;;;;8394463;28;20260;-67
2022/01/29 14:51:33;;;;;;;6.33;4.60;;;4.90;99.90;;;;;;8396752;28;20185;-67
2022/01/29 14:55:34;;;;;;;7.27;4.50;;;4.90;99.90;;;;;;8386413;28;20208;-67
2022/01/29 14:59:36;;;;;;;7.00;4.60;;;4.90;99.90;;;;;;8393176;28;20640;-68
2022/01/29 15:03:38;;;;;;;6.77;5.10;;;5.00;99.90;;;;;;8419178;28;20206;-67
2022/01/29 15:07:38;;;;;;;6.30;4.80;;;5.00;99.90;;;;;;8389341;28;20192;-67
2022/01/29 15:11:39;;;;;;;6.27;4.77;;;5.00;99.90;;;;;;8381652;28;20255;-66
2022/01/29 15:15:43;;;;;;;8.03;5.10;;;5.00;99.90;;;;;;8384667;28;20452;-71
2022/01/29 15:19:57;;;;;;;6.57;4.80;;;5.00;99.90;;;;;;8382452;28;20588;-68
2022/01/29 15:23:58;;;;;;;6.27;4.90;;;5.00;99.90;;;;;;8388347;28;20189;-68
2022/01/29 15:27:59;;;;;;;5.87;4.20;;;5.00;99.90;;;;;;8382156;28;20241;-68
2022/01/29 15:31:59;;;;;;;5.60;3.90;;;5.10;99.90;;;;;;8394551;28;20186;-67
2022/01/29 15:36:01;;;;;;;6.23;4.07;;;5.10;99.90;;;;;;8397523;28;20188;-67
2022/01/29 15:40:03;;;;;;;6.47;4.23;;;5.20;99.90;;;;;;8380962;28;20181;-66
2022/01/29 15:44:04;;;;;;;7.77;4.07;;;5.20;99.90;;;;;;8397022;28;20235;-67
2022/01/29 15:48:05;;;;;;;5.63;3.50;;;5.20;99.90;;;;;;8392178;28;20508;-68
2022/01/29 15:52:09;;;;;;;3.50;2.63;;;5.30;99.90;;;;;;8385719;28;20296;-67
2022/01/29 15:56:11;;;;;;;3.77;3.07;;;5.30;99.90;;;;;;8384372;28;20212;-67
2022/01/29 16:00:12;;;;;;;5.17;2.90;;;5.40;99.90;;;;;;8394754;28;20266;-68
2022/01/29 16:04:13;;;;;;;5.03;3.40;;;5.40;99.90;;;;;;8390662;28;20197;-68
2022/01/29 16:08:16;;;;;;;5.57;3.43;;;5.40;99.90;;;;;;8380534;28;20187;-67
2022/01/29 16:12:17;;;;;;;5.93;3.80;;;5.40;99.90;;;;;;8378608;28;20252;-66
2022/01/29 16:16:18;;;;;;;3.87;3.13;;;5.50;99.90;;;;;;8413624;28;20223;-66
2022/01/29 16:20:19;;;;;;;4.90;3.30;;;5.50;99.90;;;;;;8409987;28;20215;-65
2022/01/29 16:24:19;;;;;;;4.87;3.67;;;5.40;99.90;;;;;;8390012;28;20777;-67
2022/01/29 16:28:21;;;;;;;5.80;4.00;;;5.40;99.90;;;;;;8361468;28;20278;-66
2022/01/29 16:32:23;;;;;;;6.70;4.00;;;5.40;99.90;;;;;;8360296;28;20598;-65
2022/01/29 16:36:24;;;;;;;6.03;4.50;;;5.30;99.90;;;;;;8347619;28;20308;-65
2022/01/29 16:40:25;;;;;;;5.87;4.60;;;5.30;99.90;;;;;;8361133;28;20252;-65
2022/01/29 16:44:25;;;;;;;11.83;7.70;;;5.20;99.90;;;;;;8380469;28;20177;-65
2022/01/29 16:48:27;;;;;;;7.33;4.37;;;5.20;99.90;;;;;;8381648;28;20181;-64
2022/01/29 16:52:28;;;;;;;7.27;4.53;;;5.10;99.90;;;;;;8356463;28;20189;-66
2022/01/29 16:56:29;;;;;;;6.63;4.40;;;5.10;99.90;;;;;;8354818;28;20265;-65
2022/01/29 17:00:30;;;;;;;5.80;4.00;;;5.10;99.90;;;;;;8355269;28;20181;-66
2022/01/29 17:04:31;;;;;;;5.87;4.23;;;5.00;99.90;;;;;;8355967;28;20188;-65
2022/01/29 17:08:33;;;;;;;7.13;4.73;;;5.00;99.90;;;;;;8330895;28;20567;-64
2022/01/29 17:12:35;;;;;;;4.53;3.40;;;5.00;99.90;;;;;;8360976;28;20276;-65
2022/01/29 17:16:38;;;;;;;5.33;3.70;;;5.00;99.90;;;;;;8355493;28;20217;-64
2022/01/29 17:20:38;;;;;;;4.97;3.73;;;5.00;99.90;;;;;;8355523;28;20189;-65
2022/01/29 17:24:41;;;;;;;5.00;3.90;;;5.00;99.90;;;;;;8369404;28;20213;-64
2022/01/29 17:28:41;;;;;;;4.90;3.83;;;5.00;99.90;;;;;;8355487;28;20174;-65
2022/01/29 17:32:48;;;;;;;5.70;3.60;;;5.00;99.90;;;;;;8359806;28;20355;-66
2022/01/29 17:36:49;;;;;;;6.03;4.30;;;5.00;99.90;;;;;;8349302;28;20200;-66
2022/01/29 17:40:51;;;;;;;5.83;3.80;;;5.10;99.90;;;;;;8359239;28;20201;-64
2022/01/29 17:44:52;;;;;;;8.03;4.13;;;5.10;99.90;;;;;;8357022;28;20188;-65
2022/01/29 17:48:54;;;;;;;9.37;4.97;;;5.20;99.90;;;;;;8358818;28;20185;-66
2022/01/29 17:52:55;;;;;;;7.27;4.03;;;5.20;99.90;;;;;;8356463;28;20181;-65
2022/01/29 17:56:56;;;;;;;4.57;3.30;;;5.20;99.90;;;;;;8360307;28;20207;-63
2022/01/29 18:00:58;;;;;;;4.77;3.50;;;5.20;99.90;;;;;;8380915;28;20253;-63
2022/01/29 18:05:00;;;;;;;6.47;3.47;;;5.30;99.90;;;;;;8386918;28;20181;-66
2022/01/29 18:09:03;;;;;;;5.57;3.80;;;5.30;99.90;;;;;;8387349;28;20207;-64
2022/01/29 18:13:06;;;;;;;6.53;3.57;;;5.30;99.90;;;;;;8359429;28;20216;-65
2022/01/29 18:17:08;;;;;;;5.07;3.67;;;5.40;99.90;;;;;;8386669;28;20621;-63
2022/01/29 18:21:09;;;;;;;5.60;3.77;;;5.40;99.90;;;;;;8377973;28;20221;-64
2022/01/29 18:25:10;;;;;;;5.27;3.50;;;5.50;99.90;;;;;;8380921;28;20216;-64
2022/01/29 18:29:11;;;;;;;5.47;4.10;;;5.50;99.90;;;;;;8348262;28;20178;-65
2022/01/29 18:33:13;;;;;;;5.77;3.97;;;5.50;99.90;;;;;;8364330;28;20193;-66
2022/01/29 18:37:15;;;;;;;5.50;4.50;;;5.50;99.90;;;;;;8369824;28;20364;-65
2022/01/29 18:41:16;;;;;;;4.83;3.73;;;5.50;99.90;;;;;;8376529;28;20211;-65
2022/01/29 18:45:17;;;;;;;6.53;3.83;;;5.50;99.90;;;;;;8349461;28;20202;-69
2022/01/29 18:49:18;;;;;;;4.57;3.97;;;5.50;99.90;;;;;;8336955;28;20181;-65
2022/01/29 18:53:20;;;;;;;5.20;3.37;;;5.60;99.90;;;;;;8357294;28;20198;-66
2022/01/29 18:57:21;;;;;;;4.60;3.37;;;5.70;99.90;;;;;;8347520;28;20297;-63
2022/01/29 19:01:22;;;;;;;5.23;2.90;;;5.80;99.90;;;;;;8357368;28;20182;-64
2022/01/29 19:05:23;;;;;;;3.43;2.73;;;5.90;99.90;;;;;;8351733;28;20174;-65
2022/01/29 19:09:23;;;;;;;3.27;2.80;;;5.90;99.90;;;;;;8349307;28;20182;-65
2022/01/29 19:13:24;;;;;;;6.20;2.83;;;6.00;99.90;;;;;;8361620;28;20181;-65
2022/01/29 19:17:25;;;;;;;3.83;2.63;;;6.00;99.90;;;;;;8352253;28;20432;-66
2022/01/29 19:21:26;;;;;;;3.30;2.60;;;6.10;99.90;;;;;;8347787;28;20186;-66
2022/01/29 19:25:27;;;;;;;2.90;2.50;;;6.10;99.90;;;;;;8346575;28;20171;-65
2022/01/29 19:29:28;;;;;;;4.10;2.63;;;6.20;99.90;;;;;;8345260;28;20189;-64
2022/01/29 19:33:29;;;;;;;2.77;2.07;;;6.30;99.90;;;;;;8352626;28;20275;-64
2022/01/29 19:37:30;;;;;;;2.50;1.97;;;6.40;99.90;;;;;;8348915;28;20300;-66
2022/01/29 19:41:31;;;;;;;3.40;1.93;;;6.60;99.90;;;;;;8346372;28;20181;-65
2022/01/29 19:45:32;;;;;;;1.63;1.50;;;6.70;99.90;;;;;;8378980;28;20197;-65
2022/01/29 19:49:34;;;;;;;1.63;1.53;;;6.80;99.90;;;;;;8386575;28;20173;-65
2022/01/29 19:53:36;;;;;;;2.00;1.43;;;6.90;99.90;;;;;;8367118;28;20188;-64
2022/01/29 19:57:38;;;;;;;2.27;1.50;;;7.00;99.90;;;;;;8358128;28;20205;-63
2022/01/29 20:01:39;;;;;;;1.83;1.53;;;7.10;99.90;;;;;;8371371;28;20174;-64
2022/01/29 20:05:42;;;;;;;3.97;1.50;;;7.20;99.90;;;;;;8388233;28;20181;-65
2022/01/29 20:09:44;;;;;;;2.13;1.10;;;7.30;19.30;;;;;;8389336;28;20177;-64
2022/01/29 20:13:44;;;;;;;1.57;1.10;;;7.30;15.40;;;;;;8362707;28;20182;-65
2022/01/29 20:17:49;;;;;;;2.33;1.10;;;7.40;5.20;;;;;;8358544;28;20271;-64
2022/01/29 20:21:50;;;;;;;1.03;0.93;;;7.40;1.00;;;;;;8359366;28;20201;-64
2022/01/29 20:25:51;;;;;;;1.20;1.00;;;7.50;1.00;;;;;;8370448;28;20166;-65
2022/01/29 20:29:52;;;;;;;1.50;0.97;;;7.40;91.20;;;;;;8361825;28;20188;-64
2022/01/29 20:33:53;;;;;;;1.67;1.23;;;7.40;99.90;;;;;;8363577;28;20220;-65
2022/01/29 20:37:54;;;;;;;1.90;1.27;;;7.40;99.90;;;;;;8357328;28;20255;-65
2022/01/29 20:41:56;;;;;;;1.53;1.10;;;7.40;99.90;;;;;;8357900;28;20174;-64
2022/01/29 20:45:57;;;;;;;2.03;1.30;;;7.40;99.90;;;;;;8356898;28;20174;-63
2022/01/29 20:49:58;;;;;;;3.30;1.33;;;7.60;1.00;;;;;;8345811;28;20389;-64
2022/01/29 20:53:59;;;;;;;1.80;1.13;;;7.70;1.00;;;;;;8365244;28;20193;-65
2022/01/29 20:58:01;;;;;;;1.73;1.20;;;7.80;99.90;;;;;;8362415;28;20201;-66
2022/01/29 21:02:02;;;;;;;1.20;1.03;;;7.90;99.90;;;;;;8370431;28;20515;-68
2022/01/29 21:06:03;;;;;;;1.30;1.00;;;7.90;99.90;;;;;;8355289;28;20169;-67
2022/01/29 21:10:04;;;;;;;1.73;0.90;;;8.00;99.90;;;;;;8353962;28;20231;-67
2022/01/29 21:14:06;;;;;;;1.30;0.90;;;8.00;1.00;;;;;;8385638;28;20185;-67
2022/01/29 21:18:07;;;;;;;1.30;0.90;;;8.00;1.00;;;;;;8371099;28;20212;-66
2022/01/29 21:22:11;;;;;;;1.20;0.90;;;8.00;1.00;;;;;;8361039;28;20181;-68
2022/01/29 21:26:15;;;;;;;1.27;0.70;;;8.10;10.10;;;;;;8352647;28;20182;-69